createdAt,value
2022-11-20T00:02:18.198Z,-2.34
2022-11-20T00:06:20.877Z,-2.27
2022-11-20T00:10:22.384Z,-2.20
2022-11-20T00:14:24.148Z,-2.21
2022-11-20T00:18:26.287Z,-2.28
2022-11-20T00:22:27.743Z,-2.35
2022-11-20T00:26:30.012Z,-2.26
2022-11-20T00:30:31.573Z,-2.22
2022-11-20T00:34:33.080Z,-2.31
2022-11-20T00:38:35.059Z,-2.34
2022-11-20T00:42:36.530Z,-2.26
2022-11-20T00:46:38.020Z,-2.36
2022-11-20T00:50:40.120Z,-2.42
2022-11-20T00:54:41.566Z,-2.41
2022-11-20T00:58:44.705Z,-2.43
2022-11-20T01:02:46.262Z,-2.50
2022-11-20T01:06:47.746Z,-2.45
2022-11-20T01:10:49.194Z,-2.43
2022-11-20T01:14:50.901Z,-2.50
2022-11-20T01:18:54.425Z,-2.58
2022-11-20T01:22:55.872Z,-2.63
2022-11-20T01:26:57.373Z,-2.62
2022-11-20T01:30:59.573Z,-2.49
2022-11-20T01:35:00.965Z,-2.55
2022-11-20T01:39:06.259Z,-2.57
2022-11-20T01:43:23.889Z,-2.70
2022-11-20T01:47:34.966Z,-2.70
2022-11-20T01:51:43.169Z,-2.79
2022-11-20T01:55:54.312Z,-2.79
2022-11-20T02:00:02.480Z,-2.81
2022-11-20T02:04:04.098Z,-2.77
2022-11-20T02:08:07.732Z,-2.79
2022-11-20T02:12:29.231Z,-2.82
2022-11-20T02:16:37.946Z,-2.78
2022-11-20T02:20:42.794Z,-2.83
2022-11-20T02:24:46.213Z,-2.87
2022-11-20T02:28:47.711Z,-2.96
2022-11-20T02:32:49.223Z,-2.77
2022-11-20T02:36:53.153Z,-2.86
2022-11-20T02:40:55.824Z,-2.90
2022-11-20T02:44:57.484Z,-2.91
2022-11-20T02:48:59.068Z,-2.99
2022-11-20T02:53:00.560Z,-3.12
2022-11-20T02:57:02.016Z,-2.98
2022-11-20T03:01:03.534Z,-3.05
2022-11-20T03:05:05.266Z,-3.05
2022-11-20T03:09:07.025Z,-3.25
2022-11-20T03:13:08.525Z,-3.20
2022-11-20T03:17:10.465Z,-3.36
2022-11-20T03:21:13.347Z,-3.41
2022-11-20T03:25:14.822Z,-3.25
2022-11-20T03:29:16.265Z,-3.14
2022-11-20T03:33:17.731Z,-3.20
2022-11-20T03:37:19.195Z,-3.28
2022-11-20T03:41:26.125Z,-3.31
2022-11-20T03:45:27.546Z,-3.30
2022-11-20T03:49:28.953Z,-3.24
2022-11-20T03:53:30.419Z,-3.17
2022-11-20T03:57:31.866Z,-3.21
2022-11-20T04:01:36.266Z,-3.06
2022-11-20T04:05:37.807Z,-2.96
2022-11-20T04:09:39.229Z,-3.02
2022-11-20T04:13:41.992Z,-2.88
2022-11-20T04:17:43.470Z,-2.82
2022-11-20T04:21:45.505Z,-2.91
2022-11-20T04:25:47.009Z,-2.90
2022-11-20T04:29:48.454Z,-3.00
2022-11-20T04:33:50.045Z,-2.80
2022-11-20T04:37:54.322Z,-2.75
2022-11-20T04:42:14.115Z,-2.82
2022-11-20T04:46:20.017Z,-2.80
2022-11-20T04:50:21.528Z,-2.72
2022-11-20T04:54:22.991Z,-2.66
2022-11-20T04:58:24.399Z,-2.70
2022-11-20T05:02:26.025Z,-2.74
2022-11-20T05:06:27.496Z,-2.76
2022-11-20T05:10:29.438Z,-2.61
2022-11-20T05:14:30.928Z,-2.66
2022-11-20T05:18:32.527Z,-2.70
2022-11-20T05:22:34.040Z,-2.61
2022-11-20T05:26:35.470Z,-2.59
2022-11-20T05:30:36.915Z,-2.60
2022-11-20T05:34:38.412Z,-2.62
2022-11-20T05:38:40.724Z,-2.59
2022-11-20T05:42:44.686Z,-2.56
2022-11-20T05:46:46.142Z,-2.55
2022-11-20T05:50:49.099Z,-2.56
2022-11-20T05:54:50.820Z,-2.51
2022-11-20T05:58:52.384Z,-2.47
2022-11-20T06:02:53.906Z,-2.42
2022-11-20T06:06:55.397Z,-2.37
2022-11-20T06:10:57.139Z,-2.35
2022-11-20T06:14:58.600Z,-2.37
2022-11-20T06:18:59.993Z,-2.29
2022-11-20T06:23:01.494Z,-2.42
2022-11-20T06:27:02.985Z,-2.30
2022-11-20T06:31:05.704Z,-2.36
2022-11-20T06:35:07.522Z,-2.28
2022-11-20T06:39:09.116Z,-2.36
2022-11-20T06:43:11.213Z,-2.29
2022-11-20T06:47:12.697Z,-2.33
2022-11-20T06:51:14.757Z,-2.25
2022-11-20T06:55:16.197Z,-2.44
2022-11-20T06:59:17.676Z,-2.46
2022-11-20T07:03:19.195Z,-2.42
2022-11-20T07:07:20.704Z,-2.46
2022-11-20T07:11:22.259Z,-2.46
2022-11-20T07:15:25.880Z,-2.52
2022-11-20T07:19:27.327Z,-2.48
2022-11-20T07:23:28.785Z,-2.44
2022-11-20T07:27:30.656Z,-2.54
2022-11-20T07:31:32.156Z,-2.49
2022-11-20T07:35:33.898Z,-2.51
2022-11-20T07:39:35.354Z,-2.50
2022-11-20T07:43:40.952Z,-2.61
2022-11-20T07:47:42.998Z,-2.51
2022-11-20T07:51:44.535Z,-2.39
2022-11-20T07:55:45.990Z,-2.39
2022-11-20T07:59:47.523Z,-2.34
2022-11-20T08:03:49.049Z,-2.32
2022-11-20T08:07:50.637Z,-2.20
2022-11-20T08:12:30.588Z,-2.24
2022-11-20T08:16:32.109Z,-2.20
2022-11-20T08:20:34.983Z,-1.98
2022-11-20T08:24:36.516Z,-1.67
2022-11-20T08:28:37.999Z,-1.88
2022-11-20T08:32:39.600Z,-1.86
2022-11-20T08:36:40.993Z,-1.75
2022-11-20T08:41:02.418Z,-1.76
2022-11-20T08:45:05.629Z,-1.90
2022-11-20T08:49:09.141Z,-1.87
2022-11-20T08:53:10.612Z,-1.99
2022-11-20T08:57:12.057Z,-2.08
2022-11-20T09:01:13.513Z,-2.21
2022-11-20T09:05:15.128Z,-2.16
2022-11-20T09:09:16.578Z,-1.98
2022-11-20T09:13:18.008Z,-1.73
2022-11-20T09:17:21.293Z,-1.87
2022-11-20T09:21:23.904Z,-1.88
2022-11-20T09:25:26.262Z,-1.84
2022-11-20T09:29:27.718Z,-1.72
2022-11-20T09:33:29.130Z,-1.83
2022-11-20T09:37:30.724Z,-1.86
2022-11-20T09:42:07.831Z,-1.80
2022-11-20T09:46:24.843Z,-1.87
2022-11-20T09:50:30.196Z,-1.81
2022-11-20T09:54:38.610Z,-1.88
2022-11-20T09:58:46.698Z,-1.81
2022-11-20T10:02:56.020Z,-1.67
2022-11-20T10:07:32.369Z,-1.76
2022-11-20T10:11:43.304Z,-1.88
2022-11-20T10:16:02.592Z,-1.72
2022-11-20T10:20:30.746Z,-1.91
2022-11-20T10:24:50.832Z,-1.81
2022-11-20T10:29:13.582Z,-1.71
2022-11-20T10:33:20.588Z,-1.91
2022-11-20T10:37:30.055Z,-1.64
2022-11-20T10:41:39.951Z,-1.73
2022-11-20T10:45:46.521Z,-1.73
2022-11-20T10:49:54.043Z,-1.66
2022-11-20T10:54:41.288Z,-1.55
2022-11-20T10:59:09.139Z,-1.69
2022-11-20T11:03:27.118Z,-1.82
2022-11-20T11:07:39.159Z,-1.75
2022-11-20T11:11:40.774Z,-1.58
2022-11-20T11:15:42.256Z,-1.54
2022-11-20T11:19:43.795Z,-1.38
2022-11-20T11:23:45.279Z,-1.20
2022-11-20T11:27:52.668Z,-0.78
2022-11-20T11:32:09.074Z,-0.44
2022-11-20T11:36:25.950Z,-0.50
2022-11-20T11:40:30.757Z,-0.83
2022-11-20T11:44:53.211Z,-0.52
2022-11-20T11:49:00.404Z,-0.50
2022-11-20T11:53:06.591Z,-0.87
2022-11-20T11:57:43.060Z,-0.62
2022-11-20T12:01:52.201Z,-0.57
2022-11-20T12:06:06.486Z,-0.55
2022-11-20T12:10:18.681Z,-0.12
2022-11-20T12:14:28.829Z,0.16
2022-11-20T12:18:31.528Z,0.02
2022-11-20T12:22:39.096Z,-0.11
2022-11-20T12:26:52.395Z,-0.07
2022-11-20T12:31:07.165Z,-0.23
2022-11-20T12:35:30.177Z,-0.39
2022-11-20T12:39:35.738Z,-0.18
2022-11-20T12:44:18.596Z,-0.43
2022-11-20T12:48:53.779Z,-0.43
2022-11-20T12:53:01.389Z,-0.79
2022-11-20T12:57:08.674Z,-0.72
2022-11-20T13:01:40.790Z,-0.65
2022-11-20T13:06:14.483Z,-0.63
2022-11-20T13:10:33.026Z,-0.77
2022-11-20T13:14:56.202Z,-0.86
2022-11-20T13:19:02.369Z,-0.88
2022-11-20T13:23:03.938Z,-0.71
2022-11-20T13:27:14.538Z,-0.88
2022-11-20T13:31:46.866Z,-0.91
2022-11-20T13:35:58.522Z,-0.83
2022-11-20T13:40:26.487Z,-1.11
2022-11-20T13:44:33.983Z,-1.01
2022-11-20T13:48:46.631Z,-1.03
2022-11-20T13:53:01.727Z,-1.03
2022-11-20T13:57:24.032Z,-0.95
2022-11-20T14:01:30.911Z,-1.10
2022-11-20T14:05:40.682Z,-1.05
2022-11-20T14:09:55.359Z,-1.04
2022-11-20T14:14:04.577Z,-1.06
2022-11-20T14:18:15.405Z,-0.89
2022-11-20T14:22:19.561Z,-1.08
2022-11-20T14:26:21.278Z,-0.99
2022-11-20T14:30:38.300Z,-1.07
2022-11-20T14:34:42.811Z,-1.03
2022-11-20T14:38:44.314Z,-1.04
2022-11-20T14:42:45.974Z,-0.98
2022-11-20T14:46:47.609Z,-1.16
2022-11-20T14:50:49.011Z,-1.10
2022-11-20T14:54:55.629Z,-1.11
2022-11-20T14:58:58.820Z,-0.99
2022-11-20T15:03:00.367Z,-1.04
2022-11-20T15:07:01.914Z,-1.04
2022-11-20T15:11:17.337Z,-0.94
2022-11-20T15:15:31.456Z,-0.86
2022-11-20T15:19:32.900Z,-0.90
2022-11-20T15:23:35.510Z,-0.83
2022-11-20T15:27:36.986Z,-0.83
2022-11-20T15:31:42.317Z,-0.86
2022-11-20T15:35:44.927Z,-0.79
2022-11-20T15:39:46.319Z,-0.90
2022-11-20T15:43:47.797Z,-0.81
2022-11-20T15:47:49.255Z,-0.87
2022-11-20T15:51:53.478Z,-0.90
2022-11-20T15:55:55.138Z,-0.80
2022-11-20T15:59:56.566Z,-0.94
2022-11-20T16:03:57.992Z,-0.80
2022-11-20T16:07:59.523Z,-0.76
2022-11-20T16:12:01.042Z,-0.86
2022-11-20T16:16:06.240Z,-0.87
2022-11-20T16:20:12.383Z,-0.96
2022-11-20T16:24:15.666Z,-1.04
2022-11-20T16:28:19.309Z,-1.37
2022-11-20T16:32:20.924Z,-1.33
2022-11-20T16:36:24.843Z,-1.40
2022-11-20T16:40:26.586Z,-1.36
2022-11-20T16:44:28.000Z,-1.33
2022-11-20T16:48:30.750Z,-1.40
2022-11-20T16:52:32.543Z,-1.35
2022-11-20T16:56:34.509Z,-1.52
2022-11-20T17:00:40.389Z,-1.61
2022-11-20T17:04:41.866Z,-1.65
2022-11-20T17:08:44.072Z,-1.69
2022-11-20T17:12:45.488Z,-1.82
2022-11-20T17:16:47.039Z,-1.78
2022-11-20T17:20:52.379Z,-1.75
2022-11-20T17:24:53.802Z,-1.91
2022-11-20T17:28:59.861Z,-1.90
2022-11-20T17:33:02.151Z,-1.86
2022-11-20T17:37:04.630Z,-1.97
2022-11-20T17:41:09.586Z,-1.92
2022-11-20T17:45:11.102Z,-1.84
2022-11-20T17:49:12.828Z,-1.94
2022-11-20T17:53:14.300Z,-1.82
2022-11-20T17:57:34.308Z,-1.78
2022-11-20T18:01:35.898Z,-1.84
2022-11-20T18:05:37.405Z,-1.87
2022-11-20T18:09:38.966Z,-1.80
2022-11-20T18:14:04.590Z,-1.70
2022-11-20T18:18:06.171Z,-1.75
2022-11-20T18:22:08.840Z,-2.01
2022-11-20T18:26:10.326Z,-2.03
2022-11-20T18:30:12.607Z,-1.89
2022-11-20T18:34:14.272Z,-2.23
2022-11-20T18:38:15.821Z,-2.39
2022-11-20T18:42:35.986Z,-2.33
2022-11-20T18:46:37.500Z,-2.55
2022-11-20T18:50:39.087Z,-2.48
2022-11-20T18:54:40.990Z,-2.46
2022-11-20T18:58:42.539Z,-2.47
2022-11-20T19:02:44.055Z,-2.43
2022-11-20T19:06:49.425Z,-2.43
2022-11-20T19:10:51.381Z,-2.44
2022-11-20T19:14:52.906Z,-2.60
2022-11-20T19:18:57.155Z,-2.53
2022-11-20T19:22:58.975Z,-2.57
2022-11-20T19:27:01.253Z,-2.54
2022-11-20T19:31:08.143Z,-2.59
2022-11-20T19:35:09.708Z,-2.48
2022-11-20T19:39:12.233Z,-2.75
2022-11-20T19:43:13.753Z,-2.74
2022-11-20T19:47:15.335Z,-2.73
2022-11-20T19:51:22.523Z,-2.60
2022-11-20T19:55:24.313Z,-2.50
2022-11-20T19:59:26.323Z,-2.66
2022-11-20T20:03:28.031Z,-2.60
2022-11-20T20:07:29.624Z,-2.87
2022-11-20T20:11:32.933Z,-2.94
2022-11-20T20:15:34.916Z,-2.84
2022-11-20T20:19:36.563Z,-2.78
2022-11-20T20:23:38.330Z,-2.82
2022-11-20T20:27:39.939Z,-2.97
2022-11-20T20:31:41.445Z,-2.92
2022-11-20T20:35:43.396Z,-2.78
2022-11-20T20:39:44.914Z,-2.77
2022-11-20T20:44:05.542Z,-3.06
2022-11-20T20:48:07.038Z,-2.86
2022-11-20T20:52:08.781Z,-2.92
2022-11-20T20:56:10.365Z,-2.95
2022-11-20T21:00:12.123Z,-2.99
2022-11-20T21:04:13.658Z,-3.13
2022-11-20T21:08:28.355Z,-3.11
2022-11-20T21:12:29.859Z,-3.14
2022-11-20T21:16:40.769Z,-3.11
2022-11-20T21:21:01.472Z,-3.17
2022-11-20T21:25:03.035Z,-3.15
2022-11-20T21:29:04.497Z,-3.21
2022-11-20T21:33:05.945Z,-3.27
2022-11-20T21:37:07.507Z,-3.45
2022-11-20T21:41:11.039Z,-3.38
2022-11-20T21:45:12.611Z,-3.40
2022-11-20T21:49:15.232Z,-3.47
2022-11-20T21:53:16.762Z,-3.50
2022-11-20T21:57:18.248Z,-4.01
2022-11-20T22:01:21.047Z,-3.68
2022-11-20T22:05:22.682Z,-3.58
2022-11-20T22:09:24.787Z,-3.61
2022-11-20T22:13:46.458Z,-3.62
2022-11-20T22:18:13.961Z,-3.67
2022-11-20T22:22:15.426Z,-3.72
2022-11-20T22:26:21.533Z,-3.69
2022-11-20T22:30:23.072Z,-3.79
2022-11-20T22:34:24.880Z,-3.83
2022-11-20T22:38:29.636Z,-3.87
2022-11-20T22:42:31.454Z,-3.88
2022-11-20T22:46:35.916Z,-3.79
2022-11-20T22:50:37.400Z,-3.68
2022-11-20T22:54:38.891Z,-3.65
2022-11-20T22:58:42.241Z,-3.63
2022-11-20T23:02:44.914Z,-3.75
2022-11-20T23:06:46.411Z,-3.66
2022-11-20T23:10:47.930Z,-3.54
2022-11-20T23:14:49.422Z,-3.46
2022-11-20T23:19:03.734Z,-3.49
2022-11-20T23:23:05.208Z,-3.42
2022-11-20T23:27:06.754Z,-3.41
2022-11-20T23:31:09.453Z,-3.48
2022-11-20T23:35:11.070Z,-3.43
2022-11-20T23:39:14.930Z,-3.37
2022-11-20T23:43:17.562Z,-3.39
2022-11-20T23:47:18.988Z,-3.30
2022-11-20T23:51:20.461Z,-3.28
2022-11-20T23:55:22.113Z,-3.22
2022-11-20T23:59:23.603Z,-3.20
